sensor_id;sensor_type;location;lat;lon;timestamp;P1;durP1;ratioP1;P2;durP2;ratioP2
56345;SDS011;42246;46.096;13.644;2023-12-29T00:02:12;25.45;;;15.80;;
56345;SDS011;42246;46.096;13.644;2023-12-29T00:04:37;27.00;;;15.90;;
56345;SDS011;42246;46.096;13.644;2023-12-29T00:07:03;30.45;;;16.30;;
56345;SDS011;42246;46.096;13.644;2023-12-29T00:09:29;29.25;;;15.07;;
56345;SDS011;42246;46.096;13.644;2023-12-29T00:11:54;26.30;;;16.63;;
56345;SDS011;42246;46.096;13.644;2023-12-29T00:14:20;28.63;;;14.55;;
56345;SDS011;42246;46.096;13.644;2023-12-29T00:16:45;28.55;;;14.45;;
56345;SDS011;42246;46.096;13.644;2023-12-29T00:19:11;27.60;;;15.50;;
56345;SDS011;42246;46.096;13.644;2023-12-29T00:21:37;23.52;;;14.73;;
56345;SDS011;42246;46.096;13.644;2023-12-29T00:24:03;23.23;;;15.50;;
56345;SDS011;42246;46.096;13.644;2023-12-29T00:26:29;32.67;;;15.40;;
56345;SDS011;42246;46.096;13.644;2023-12-29T00:28:55;24.70;;;14.07;;
56345;SDS011;42246;46.096;13.644;2023-12-29T00:31:20;24.50;;;14.15;;
56345;SDS011;42246;46.096;13.644;2023-12-29T00:33:46;24.50;;;14.70;;
56345;SDS011;42246;46.096;13.644;2023-12-29T00:36:18;30.92;;;18.00;;
56345;SDS011;42246;46.096;13.644;2023-12-29T00:38:44;30.42;;;17.20;;
56345;SDS011;42246;46.096;13.644;2023-12-29T00:41:10;26.92;;;13.90;;
56345;SDS011;42246;46.096;13.644;2023-12-29T00:43:35;24.10;;;15.98;;
56345;SDS011;42246;46.096;13.644;2023-12-29T00:46:01;31.33;;;14.05;;
56345;SDS011;42246;46.096;13.644;2023-12-29T00:48:28;29.60;;;16.40;;
56345;SDS011;42246;46.096;13.644;2023-12-29T00:50:54;23.77;;;14.10;;
56345;SDS011;42246;46.096;13.644;2023-12-29T00:53:19;26.77;;;15.75;;
56345;SDS011;42246;46.096;13.644;2023-12-29T00:55:45;24.85;;;16.35;;
56345;SDS011;42246;46.096;13.644;2023-12-29T00:58:10;30.35;;;15.93;;
56345;SDS011;42246;46.096;13.644;2023-12-29T01:00:36;28.42;;;15.38;;
56345;SDS011;42246;46.096;13.644;2023-12-29T01:03:01;35.08;;;16.25;;
56345;SDS011;42246;46.096;13.644;2023-12-29T01:05:26;33.15;;;15.85;;
56345;SDS011;42246;46.096;13.644;2023-12-29T01:07:52;29.95;;;17.00;;
56345;SDS011;42246;46.096;13.644;2023-12-29T01:10:19;36.17;;;16.88;;
56345;SDS011;42246;46.096;13.644;2023-12-29T01:12:45;24.15;;;15.68;;
56345;SDS011;42246;46.096;13.644;2023-12-29T01:15:11;25.52;;;15.70;;
56345;SDS011;42246;46.096;13.644;2023-12-29T01:17:36;30.67;;;16.75;;
56345;SDS011;42246;46.096;13.644;2023-12-29T01:20:02;22.77;;;14.57;;
56345;SDS011;42246;46.096;13.644;2023-12-29T01:22:29;28.60;;;16.35;;
56345;SDS011;42246;46.096;13.644;2023-12-29T01:24:54;28.75;;;16.20;;
56345;SDS011;42246;46.096;13.644;2023-12-29T01:27:20;31.27;;;18.52;;
56345;SDS011;42246;46.096;13.644;2023-12-29T01:29:45;27.10;;;15.50;;
56345;SDS011;42246;46.096;13.644;2023-12-29T01:32:11;35.90;;;17.13;;
56345;SDS011;42246;46.096;13.644;2023-12-29T01:34:36;31.25;;;16.05;;
56345;SDS011;42246;46.096;13.644;2023-12-29T01:37:02;35.78;;;17.90;;
56345;SDS011;42246;46.096;13.644;2023-12-29T01:39:29;26.67;;;15.60;;
56345;SDS011;42246;46.096;13.644;2023-12-29T01:41:55;28.95;;;17.83;;
56345;SDS011;42246;46.096;13.644;2023-12-29T01:44:21;25.42;;;16.75;;
56345;SDS011;42246;46.096;13.644;2023-12-29T01:46:50;24.75;;;15.85;;
56345;SDS011;42246;46.096;13.644;2023-12-29T01:49:17;25.92;;;15.68;;
56345;SDS011;42246;46.096;13.644;2023-12-29T01:51:43;26.08;;;14.95;;
56345;SDS011;42246;46.096;13.644;2023-12-29T01:54:09;24.98;;;14.48;;
56345;SDS011;42246;46.096;13.644;2023-12-29T01:56:35;27.73;;;16.55;;
56345;SDS011;42246;46.096;13.644;2023-12-29T01:59:02;27.42;;;14.73;;
56345;SDS011;42246;46.096;13.644;2023-12-29T02:01:29;30.45;;;15.80;;
56345;SDS011;42246;46.096;13.644;2023-12-29T02:03:54;31.88;;;16.45;;
56345;SDS011;42246;46.096;13.644;2023-12-29T02:06:19;25.15;;;15.13;;
56345;SDS011;42246;46.096;13.644;2023-12-29T02:08:46;26.17;;;14.75;;
56345;SDS011;42246;46.096;13.644;2023-12-29T02:11:13;36.30;;;15.15;;
56345;SDS011;42246;46.096;13.644;2023-12-29T02:13:39;20.00;;;10.60;;
56345;SDS011;42246;46.096;13.644;2023-12-29T02:16:09;20.13;;;11.10;;
56345;SDS011;42246;46.096;13.644;2023-12-29T02:18:56;20.02;;;10.93;;
56345;SDS011;42246;46.096;13.644;2023-12-29T02:21:26;23.23;;;13.90;;
56345;SDS011;42246;46.096;13.644;2023-12-29T02:23:52;23.55;;;13.35;;
56345;SDS011;42246;46.096;13.644;2023-12-29T02:26:17;26.50;;;14.95;;
56345;SDS011;42246;46.096;13.644;2023-12-29T02:28:47;25.50;;;14.52;;
56345;SDS011;42246;46.096;13.644;2023-12-29T02:31:19;28.95;;;15.32;;
56345;SDS011;42246;46.096;13.644;2023-12-29T02:33:45;30.40;;;14.15;;
56345;SDS011;42246;46.096;13.644;2023-12-29T02:36:12;22.67;;;12.20;;
56345;SDS011;42246;46.096;13.644;2023-12-29T02:38:38;18.85;;;11.35;;
56345;SDS011;42246;46.096;13.644;2023-12-29T02:41:04;23.13;;;11.70;;
56345;SDS011;42246;46.096;13.644;2023-12-29T02:43:33;19.13;;;10.95;;
56345;SDS011;42246;46.096;13.644;2023-12-29T02:45:59;23.65;;;12.80;;
56345;SDS011;42246;46.096;13.644;2023-12-29T02:48:24;28.92;;;13.63;;
56345;SDS011;42246;46.096;13.644;2023-12-29T02:50:50;26.77;;;15.32;;
56345;SDS011;42246;46.096;13.644;2023-12-29T02:53:15;23.27;;;14.18;;
56345;SDS011;42246;46.096;13.644;2023-12-29T02:55:41;22.05;;;12.90;;
56345;SDS011;42246;46.096;13.644;2023-12-29T02:58:07;19.40;;;11.88;;
56345;SDS011;42246;46.096;13.644;2023-12-29T03:00:32;24.30;;;13.60;;
56345;SDS011;42246;46.096;13.644;2023-12-29T03:02:58;21.55;;;12.75;;
56345;SDS011;42246;46.096;13.644;2023-12-29T03:05:24;21.45;;;12.05;;
56345;SDS011;42246;46.096;13.644;2023-12-29T03:07:49;23.98;;;13.85;;
56345;SDS011;42246;46.096;13.644;2023-12-29T03:10:14;31.65;;;13.55;;
56345;SDS011;42246;46.096;13.644;2023-12-29T03:12:40;22.15;;;13.27;;
56345;SDS011;42246;46.096;13.644;2023-12-29T03:15:05;26.33;;;13.95;;
56345;SDS011;42246;46.096;13.644;2023-12-29T03:17:31;24.50;;;13.98;;
56345;SDS011;42246;46.096;13.644;2023-12-29T03:19:56;32.95;;;14.63;;
56345;SDS011;42246;46.096;13.644;2023-12-29T03:22:22;20.15;;;12.55;;
56345;SDS011;42246;46.096;13.644;2023-12-29T03:24:48;22.10;;;13.27;;
56345;SDS011;42246;46.096;13.644;2023-12-29T03:27:13;25.35;;;14.77;;
56345;SDS011;42246;46.096;13.644;2023-12-29T03:29:38;23.13;;;14.18;;
56345;SDS011;42246;46.096;13.644;2023-12-29T03:32:04;21.45;;;12.73;;
56345;SDS011;42246;46.096;13.644;2023-12-29T03:34:30;27.25;;;14.32;;
56345;SDS011;42246;46.096;13.644;2023-12-29T03:36:55;25.50;;;13.20;;
56345;SDS011;42246;46.096;13.644;2023-12-29T03:39:21;19.65;;;13.75;;
56345;SDS011;42246;46.096;13.644;2023-12-29T03:41:46;21.85;;;12.23;;
56345;SDS011;42246;46.096;13.644;2023-12-29T03:44:12;22.98;;;14.18;;
56345;SDS011;42246;46.096;13.644;2023-12-29T03:46:37;19.77;;;13.10;;
56345;SDS011;42246;46.096;13.644;2023-12-29T03:49:04;19.65;;;12.27;;
56345;SDS011;42246;46.096;13.644;2023-12-29T03:51:29;21.48;;;12.70;;
56345;SDS011;42246;46.096;13.644;2023-12-29T03:53:56;21.70;;;12.90;;
56345;SDS011;42246;46.096;13.644;2023-12-29T03:56:23;19.92;;;12.10;;
56345;SDS011;42246;46.096;13.644;2023-12-29T03:58:49;23.42;;;11.98;;
56345;SDS011;42246;46.096;13.644;2023-12-29T04:01:14;17.38;;;10.57;;
56345;SDS011;42246;46.096;13.644;2023-12-29T04:03:41;20.00;;;12.70;;
56345;SDS011;42246;46.096;13.644;2023-12-29T04:06:06;28.92;;;14.25;;
56345;SDS011;42246;46.096;13.644;2023-12-29T04:08:33;21.65;;;12.55;;
56345;SDS011;42246;46.096;13.644;2023-12-29T04:10:59;24.00;;;13.68;;
56345;SDS011;42246;46.096;13.644;2023-12-29T04:13:24;19.98;;;12.73;;
56345;SDS011;42246;46.096;13.644;2023-12-29T04:15:50;21.38;;;11.85;;
56345;SDS011;42246;46.096;13.644;2023-12-29T04:18:15;20.52;;;12.05;;
56345;SDS011;42246;46.096;13.644;2023-12-29T04:20:41;24.23;;;12.35;;
56345;SDS011;42246;46.096;13.644;2023-12-29T04:23:07;21.35;;;12.40;;
56345;SDS011;42246;46.096;13.644;2023-12-29T04:25:33;18.30;;;11.88;;
56345;SDS011;42246;46.096;13.644;2023-12-29T04:27:58;22.77;;;12.43;;
56345;SDS011;42246;46.096;13.644;2023-12-29T04:30:24;26.27;;;11.75;;
56345;SDS011;42246;46.096;13.644;2023-12-29T04:32:49;25.40;;;13.18;;
56345;SDS011;42246;46.096;13.644;2023-12-29T04:35:15;24.38;;;13.00;;
56345;SDS011;42246;46.096;13.644;2023-12-29T04:37:41;24.20;;;13.57;;
56345;SDS011;42246;46.096;13.644;2023-12-29T04:40:09;15.18;;;10.13;;
56345;SDS011;42246;46.096;13.644;2023-12-29T04:42:35;19.02;;;11.45;;
56345;SDS011;42246;46.096;13.644;2023-12-29T04:45:00;19.55;;;10.70;;
56345;SDS011;42246;46.096;13.644;2023-12-29T04:47:26;19.88;;;12.30;;
56345;SDS011;42246;46.096;13.644;2023-12-29T04:49:51;20.25;;;12.00;;
56345;SDS011;42246;46.096;13.644;2023-12-29T04:52:17;24.80;;;13.38;;
56345;SDS011;42246;46.096;13.644;2023-12-29T04:54:42;25.58;;;14.65;;
56345;SDS011;42246;46.096;13.644;2023-12-29T04:57:08;20.23;;;11.90;;
56345;SDS011;42246;46.096;13.644;2023-12-29T04:59:33;23.30;;;14.10;;
56345;SDS011;42246;46.096;13.644;2023-12-29T05:01:59;21.08;;;13.23;;
56345;SDS011;42246;46.096;13.644;2023-12-29T05:04:24;20.20;;;11.63;;
56345;SDS011;42246;46.096;13.644;2023-12-29T05:06:50;21.90;;;12.27;;
56345;SDS011;42246;46.096;13.644;2023-12-29T05:09:15;23.83;;;12.38;;
56345;SDS011;42246;46.096;13.644;2023-12-29T05:11:41;27.35;;;13.63;;
56345;SDS011;42246;46.096;13.644;2023-12-29T05:14:06;30.13;;;13.05;;
56345;SDS011;42246;46.096;13.644;2023-12-29T05:16:32;21.77;;;12.20;;
56345;SDS011;42246;46.096;13.644;2023-12-29T05:18:57;22.67;;;12.80;;
56345;SDS011;42246;46.096;13.644;2023-12-29T05:21:22;23.60;;;12.13;;
56345;SDS011;42246;46.096;13.644;2023-12-29T05:23:49;21.27;;;11.32;;
56345;SDS011;42246;46.096;13.644;2023-12-29T05:26:15;19.95;;;10.20;;
56345;SDS011;42246;46.096;13.644;2023-12-29T05:28:40;19.40;;;10.90;;
56345;SDS011;42246;46.096;13.644;2023-12-29T05:31:06;21.85;;;11.75;;
56345;SDS011;42246;46.096;13.644;2023-12-29T05:33:31;17.85;;;9.73;;
56345;SDS011;42246;46.096;13.644;2023-12-29T05:35:57;21.45;;;11.07;;
56345;SDS011;42246;46.096;13.644;2023-12-29T05:38:23;17.73;;;11.43;;
56345;SDS011;42246;46.096;13.644;2023-12-29T05:40:49;21.13;;;10.88;;
56345;SDS011;42246;46.096;13.644;2023-12-29T05:43:15;16.40;;;9.32;;
56345;SDS011;42246;46.096;13.644;2023-12-29T05:45:41;20.95;;;12.23;;
56345;SDS011;42246;46.096;13.644;2023-12-29T05:48:07;21.40;;;11.90;;
56345;SDS011;42246;46.096;13.644;2023-12-29T05:50:33;17.60;;;11.93;;
56345;SDS011;42246;46.096;13.644;2023-12-29T05:52:58;21.85;;;12.38;;
56345;SDS011;42246;46.096;13.644;2023-12-29T05:55:24;21.58;;;13.18;;
56345;SDS011;42246;46.096;13.644;2023-12-29T05:57:49;22.65;;;12.18;;
56345;SDS011;42246;46.096;13.644;2023-12-29T06:00:15;19.10;;;10.50;;
56345;SDS011;42246;46.096;13.644;2023-12-29T06:02:41;18.83;;;10.80;;
56345;SDS011;42246;46.096;13.644;2023-12-29T06:05:07;16.83;;;11.60;;
56345;SDS011;42246;46.096;13.644;2023-12-29T06:07:34;24.55;;;12.70;;
56345;SDS011;42246;46.096;13.644;2023-12-29T06:09:59;18.83;;;10.75;;
56345;SDS011;42246;46.096;13.644;2023-12-29T06:12:25;16.60;;;11.07;;
56345;SDS011;42246;46.096;13.644;2023-12-29T06:14:50;21.65;;;13.18;;
56345;SDS011;42246;46.096;13.644;2023-12-29T06:17:16;38.67;;;17.05;;
56345;SDS011;42246;46.096;13.644;2023-12-29T06:19:41;50.50;;;23.60;;
56345;SDS011;42246;46.096;13.644;2023-12-29T06:22:07;22.88;;;13.07;;
56345;SDS011;42246;46.096;13.644;2023-12-29T06:24:36;36.58;;;16.83;;
56345;SDS011;42246;46.096;13.644;2023-12-29T06:27:02;32.08;;;15.82;;
56345;SDS011;42246;46.096;13.644;2023-12-29T06:29:28;35.72;;;15.70;;
56345;SDS011;42246;46.096;13.644;2023-12-29T06:31:53;23.83;;;14.63;;
56345;SDS011;42246;46.096;13.644;2023-12-29T06:34:19;19.73;;;10.45;;
56345;SDS011;42246;46.096;13.644;2023-12-29T06:36:44;27.25;;;11.80;;
56345;SDS011;42246;46.096;13.644;2023-12-29T06:39:10;21.13;;;13.20;;
56345;SDS011;42246;46.096;13.644;2023-12-29T06:41:35;19.33;;;10.80;;
56345;SDS011;42246;46.096;13.644;2023-12-29T06:44:01;25.15;;;13.73;;
56345;SDS011;42246;46.096;13.644;2023-12-29T06:46:26;26.08;;;13.13;;
56345;SDS011;42246;46.096;13.644;2023-12-29T06:48:52;26.27;;;15.95;;
56345;SDS011;42246;46.096;13.644;2023-12-29T06:51:17;26.70;;;12.95;;
56345;SDS011;42246;46.096;13.644;2023-12-29T06:53:44;21.33;;;12.00;;
56345;SDS011;42246;46.096;13.644;2023-12-29T06:56:17;18.02;;;11.00;;
56345;SDS011;42246;46.096;13.644;2023-12-29T06:58:46;20.98;;;12.07;;
56345;SDS011;42246;46.096;13.644;2023-12-29T07:01:11;17.08;;;10.52;;
56345;SDS011;42246;46.096;13.644;2023-12-29T07:03:37;20.90;;;12.02;;
56345;SDS011;42246;46.096;13.644;2023-12-29T07:06:03;18.27;;;10.80;;
56345;SDS011;42246;46.096;13.644;2023-12-29T07:08:29;20.52;;;10.73;;
56345;SDS011;42246;46.096;13.644;2023-12-29T07:10:54;20.73;;;11.70;;
56345;SDS011;42246;46.096;13.644;2023-12-29T07:13:20;26.60;;;13.88;;
56345;SDS011;42246;46.096;13.644;2023-12-29T07:15:48;24.67;;;13.75;;
56345;SDS011;42246;46.096;13.644;2023-12-29T07:18:14;19.15;;;11.38;;
56345;SDS011;42246;46.096;13.644;2023-12-29T07:20:40;25.02;;;13.95;;
56345;SDS011;42246;46.096;13.644;2023-12-29T07:23:06;22.30;;;12.07;;
56345;SDS011;42246;46.096;13.644;2023-12-29T07:25:32;23.48;;;13.70;;
56345;SDS011;42246;46.096;13.644;2023-12-29T07:27:57;17.00;;;10.98;;
56345;SDS011;42246;46.096;13.644;2023-12-29T07:30:23;18.38;;;9.63;;
56345;SDS011;42246;46.096;13.644;2023-12-29T07:32:48;19.10;;;8.55;;
56345;SDS011;42246;46.096;13.644;2023-12-29T07:35:14;17.30;;;9.27;;
56345;SDS011;42246;46.096;13.644;2023-12-29T07:37:42;16.55;;;9.50;;
56345;SDS011;42246;46.096;13.644;2023-12-29T07:40:12;12.05;;;7.10;;
56345;SDS011;42246;46.096;13.644;2023-12-29T07:42:41;12.27;;;7.20;;
56345;SDS011;42246;46.096;13.644;2023-12-29T07:45:09;12.88;;;6.68;;
56345;SDS011;42246;46.096;13.644;2023-12-29T07:47:35;14.60;;;8.48;;
56345;SDS011;42246;46.096;13.644;2023-12-29T07:50:00;13.18;;;7.13;;
56345;SDS011;42246;46.096;13.644;2023-12-29T07:52:26;17.55;;;8.68;;
56345;SDS011;42246;46.096;13.644;2023-12-29T07:54:52;29.35;;;15.65;;
56345;SDS011;42246;46.096;13.644;2023-12-29T07:57:17;60.17;;;27.00;;
56345;SDS011;42246;46.096;13.644;2023-12-29T07:59:43;29.27;;;17.10;;
56345;SDS011;42246;46.096;13.644;2023-12-29T08:02:08;13.18;;;9.40;;
56345;SDS011;42246;46.096;13.644;2023-12-29T08:04:34;25.92;;;13.15;;
56345;SDS011;42246;46.096;13.644;2023-12-29T08:07:00;36.17;;;18.95;;
56345;SDS011;42246;46.096;13.644;2023-12-29T08:09:25;41.10;;;20.23;;
56345;SDS011;42246;46.096;13.644;2023-12-29T08:11:51;18.30;;;9.38;;
56345;SDS011;42246;46.096;13.644;2023-12-29T08:14:16;11.02;;;7.75;;
56345;SDS011;42246;46.096;13.644;2023-12-29T08:16:42;11.80;;;8.07;;
56345;SDS011;42246;46.096;13.644;2023-12-29T08:19:07;15.27;;;9.15;;
56345;SDS011;42246;46.096;13.644;2023-12-29T08:21:35;14.60;;;6.88;;
56345;SDS011;42246;46.096;13.644;2023-12-29T08:24:00;10.48;;;5.93;;
56345;SDS011;42246;46.096;13.644;2023-12-29T08:26:26;11.32;;;6.47;;
56345;SDS011;42246;46.096;13.644;2023-12-29T08:28:51;11.57;;;7.40;;
56345;SDS011;42246;46.096;13.644;2023-12-29T08:31:18;8.55;;;5.53;;
56345;SDS011;42246;46.096;13.644;2023-12-29T08:33:44;8.95;;;6.03;;
56345;SDS011;42246;46.096;13.644;2023-12-29T08:36:11;9.77;;;5.63;;
56345;SDS011;42246;46.096;13.644;2023-12-29T08:38:36;9.73;;;6.05;;
56345;SDS011;42246;46.096;13.644;2023-12-29T08:41:02;10.02;;;6.60;;
56345;SDS011;42246;46.096;13.644;2023-12-29T08:43:28;10.13;;;6.15;;
56345;SDS011;42246;46.096;13.644;2023-12-29T08:45:53;9.43;;;6.32;;
56345;SDS011;42246;46.096;13.644;2023-12-29T08:48:19;9.82;;;6.25;;
56345;SDS011;42246;46.096;13.644;2023-12-29T08:50:44;11.45;;;7.50;;
56345;SDS011;42246;46.096;13.644;2023-12-29T08:53:10;14.25;;;6.15;;
56345;SDS011;42246;46.096;13.644;2023-12-29T08:55:35;10.50;;;6.07;;
56345;SDS011;42246;46.096;13.644;2023-12-29T08:58:01;12.23;;;7.38;;
56345;SDS011;42246;46.096;13.644;2023-12-29T09:00:26;10.13;;;6.68;;
56345;SDS011;42246;46.096;13.644;2023-12-29T09:02:52;17.48;;;7.00;;
56345;SDS011;42246;46.096;13.644;2023-12-29T09:05:17;10.57;;;6.82;;
56345;SDS011;42246;46.096;13.644;2023-12-29T09:07:43;10.50;;;7.22;;
56345;SDS011;42246;46.096;13.644;2023-12-29T09:10:08;7.65;;;6.38;;
56345;SDS011;42246;46.096;13.644;2023-12-29T09:12:36;12.70;;;6.78;;
56345;SDS011;42246;46.096;13.644;2023-12-29T09:15:03;10.50;;;6.20;;
56345;SDS011;42246;46.096;13.644;2023-12-29T09:17:29;8.32;;;5.72;;
56345;SDS011;42246;46.096;13.644;2023-12-29T09:19:55;9.85;;;5.70;;
56345;SDS011;42246;46.096;13.644;2023-12-29T09:22:20;12.32;;;6.20;;
56345;SDS011;42246;46.096;13.644;2023-12-29T09:24:46;11.20;;;5.72;;
56345;SDS011;42246;46.096;13.644;2023-12-29T09:27:11;12.40;;;7.32;;
56345;SDS011;42246;46.096;13.644;2023-12-29T09:29:37;10.35;;;6.05;;
56345;SDS011;42246;46.096;13.644;2023-12-29T09:32:02;13.43;;;6.25;;
56345;SDS011;42246;46.096;13.644;2023-12-29T09:34:28;14.27;;;6.88;;
56345;SDS011;42246;46.096;13.644;2023-12-29T09:36:54;9.80;;;6.60;;
56345;SDS011;42246;46.096;13.644;2023-12-29T09:39:19;10.70;;;5.57;;
56345;SDS011;42246;46.096;13.644;2023-12-29T09:41:45;11.95;;;6.95;;
56345;SDS011;42246;46.096;13.644;2023-12-29T09:44:15;10.55;;;5.95;;
56345;SDS011;42246;46.096;13.644;2023-12-29T09:46:42;11.43;;;7.53;;
56345;SDS011;42246;46.096;13.644;2023-12-29T09:49:08;10.82;;;6.10;;
56345;SDS011;42246;46.096;13.644;2023-12-29T09:51:34;14.20;;;6.90;;
56345;SDS011;42246;46.096;13.644;2023-12-29T09:54:01;12.57;;;6.13;;
56345;SDS011;42246;46.096;13.644;2023-12-29T09:56:27;10.73;;;6.15;;
56345;SDS011;42246;46.096;13.644;2023-12-29T09:58:52;9.02;;;5.22;;
56345;SDS011;42246;46.096;13.644;2023-12-29T10:01:19;6.43;;;4.55;;
56345;SDS011;42246;46.096;13.644;2023-12-29T10:03:47;11.30;;;5.88;;
56345;SDS011;42246;46.096;13.644;2023-12-29T10:06:14;11.50;;;7.10;;
56345;SDS011;42246;46.096;13.644;2023-12-29T10:08:46;11.05;;;7.55;;
56345;SDS011;42246;46.096;13.644;2023-12-29T10:11:13;10.05;;;6.68;;
56345;SDS011;42246;46.096;13.644;2023-12-29T10:13:41;12.25;;;7.85;;
56345;SDS011;42246;46.096;13.644;2023-12-29T10:16:14;13.38;;;6.95;;
56345;SDS011;42246;46.096;13.644;2023-12-29T10:18:44;17.98;;;8.40;;
56345;SDS011;42246;46.096;13.644;2023-12-29T10:21:22;15.90;;;8.15;;
56345;SDS011;42246;46.096;13.644;2023-12-29T10:24:02;13.35;;;7.75;;
56345;SDS011;42246;46.096;13.644;2023-12-29T10:26:29;11.27;;;7.85;;
56345;SDS011;42246;46.096;13.644;2023-12-29T10:28:55;12.25;;;8.23;;
56345;SDS011;42246;46.096;13.644;2023-12-29T10:31:23;12.35;;;6.78;;
56345;SDS011;42246;46.096;13.644;2023-12-29T10:33:49;10.23;;;5.63;;
56345;SDS011;42246;46.096;13.644;2023-12-29T10:36:16;8.40;;;5.80;;
56345;SDS011;42246;46.096;13.644;2023-12-29T10:38:42;18.23;;;7.32;;
56345;SDS011;42246;46.096;13.644;2023-12-29T10:41:14;8.80;;;5.22;;
56345;SDS011;42246;46.096;13.644;2023-12-29T10:43:41;10.95;;;6.53;;
56345;SDS011;42246;46.096;13.644;2023-12-29T10:46:08;9.23;;;5.93;;
56345;SDS011;42246;46.096;13.644;2023-12-29T10:48:34;13.25;;;5.45;;
56345;SDS011;42246;46.096;13.644;2023-12-29T10:51:02;11.02;;;5.70;;
56345;SDS011;42246;46.096;13.644;2023-12-29T10:53:32;9.48;;;5.35;;
56345;SDS011;42246;46.096;13.644;2023-12-29T10:55:58;9.82;;;5.57;;
56345;SDS011;42246;46.096;13.644;2023-12-29T10:58:27;8.15;;;5.00;;
56345;SDS011;42246;46.096;13.644;2023-12-29T11:00:57;10.73;;;5.20;;
56345;SDS011;42246;46.096;13.644;2023-12-29T11:03:23;10.43;;;5.95;;
56345;SDS011;42246;46.096;13.644;2023-12-29T11:05:49;10.73;;;5.82;;
56345;SDS011;42246;46.096;13.644;2023-12-29T11:08:19;8.73;;;5.70;;
56345;SDS011;42246;46.096;13.644;2023-12-29T11:10:46;8.70;;;4.82;;
56345;SDS011;42246;46.096;13.644;2023-12-29T11:13:15;12.00;;;5.85;;
56345;SDS011;42246;46.096;13.644;2023-12-29T11:15:44;6.95;;;5.00;;
56345;SDS011;42246;46.096;13.644;2023-12-29T11:18:15;8.77;;;5.60;;
56345;SDS011;42246;46.096;13.644;2023-12-29T11:20:42;7.28;;;4.57;;
56345;SDS011;42246;46.096;13.644;2023-12-29T11:23:11;11.65;;;6.25;;
56345;SDS011;42246;46.096;13.644;2023-12-29T11:25:40;13.93;;;6.82;;
56345;SDS011;42246;46.096;13.644;2023-12-29T11:28:06;10.93;;;6.93;;
56345;SDS011;42246;46.096;13.644;2023-12-29T11:30:34;13.27;;;7.03;;
56345;SDS011;42246;46.096;13.644;2023-12-29T11:33:05;12.68;;;6.63;;
56345;SDS011;42246;46.096;13.644;2023-12-29T11:35:54;9.27;;;5.72;;
56345;SDS011;42246;46.096;13.644;2023-12-29T11:41:21;10.52;;;6.32;;
56345;SDS011;42246;46.096;13.644;2023-12-29T11:43:57;8.52;;;5.13;;
56345;SDS011;42246;46.096;13.644;2023-12-29T11:46:43;16.52;;;7.38;;
56345;SDS011;42246;46.096;13.644;2023-12-29T11:51:35;14.18;;;6.95;;
56345;SDS011;42246;46.096;13.644;2023-12-29T11:54:10;17.52;;;9.00;;
56345;SDS011;42246;46.096;13.644;2023-12-29T11:56:47;12.15;;;6.57;;
56345;SDS011;42246;46.096;13.644;2023-12-29T11:59:13;14.13;;;8.77;;
56345;SDS011;42246;46.096;13.644;2023-12-29T12:01:38;15.18;;;8.75;;
56345;SDS011;42246;46.096;13.644;2023-12-29T12:04:04;14.93;;;9.93;;
56345;SDS011;42246;46.096;13.644;2023-12-29T12:06:36;12.80;;;8.18;;
56345;SDS011;42246;46.096;13.644;2023-12-29T12:09:16;11.45;;;7.10;;
56345;SDS011;42246;46.096;13.644;2023-12-29T12:11:43;12.80;;;7.65;;
56345;SDS011;42246;46.096;13.644;2023-12-29T12:14:09;12.25;;;7.05;;
56345;SDS011;42246;46.096;13.644;2023-12-29T12:16:50;13.52;;;6.55;;
56345;SDS011;42246;46.096;13.644;2023-12-29T12:19:17;11.05;;;7.70;;
56345;SDS011;42246;46.096;13.644;2023-12-29T12:21:45;11.32;;;7.30;;
56345;SDS011;42246;46.096;13.644;2023-12-29T12:24:13;16.63;;;8.02;;
56345;SDS011;42246;46.096;13.644;2023-12-29T12:26:38;14.70;;;8.98;;
56345;SDS011;42246;46.096;13.644;2023-12-29T12:29:05;18.70;;;9.98;;
56345;SDS011;42246;46.096;13.644;2023-12-29T12:31:31;18.50;;;11.10;;
56345;SDS011;42246;46.096;13.644;2023-12-29T12:33:57;21.13;;;13.30;;
56345;SDS011;42246;46.096;13.644;2023-12-29T12:36:23;16.60;;;10.82;;
56345;SDS011;42246;46.096;13.644;2023-12-29T12:38:50;24.88;;;10.82;;
56345;SDS011;42246;46.096;13.644;2023-12-29T12:41:19;21.98;;;10.40;;
56345;SDS011;42246;46.096;13.644;2023-12-29T12:43:50;21.92;;;12.73;;
56345;SDS011;42246;46.096;13.644;2023-12-29T12:46:22;29.65;;;14.70;;
56345;SDS011;42246;46.096;13.644;2023-12-29T12:48:50;23.13;;;13.80;;
56345;SDS011;42246;46.096;13.644;2023-12-29T12:51:16;24.95;;;13.13;;
56345;SDS011;42246;46.096;13.644;2023-12-29T12:53:44;27.35;;;13.38;;
56345;SDS011;42246;46.096;13.644;2023-12-29T12:56:10;22.55;;;8.73;;
56345;SDS011;42246;46.096;13.644;2023-12-29T12:58:36;16.92;;;10.15;;
56345;SDS011;42246;46.096;13.644;2023-12-29T13:01:02;15.85;;;9.50;;
56345;SDS011;42246;46.096;13.644;2023-12-29T13:03:27;14.23;;;8.18;;
56345;SDS011;42246;46.096;13.644;2023-12-29T13:05:53;15.85;;;9.18;;
56345;SDS011;42246;46.096;13.644;2023-12-29T13:08:19;19.10;;;8.77;;
56345;SDS011;42246;46.096;13.644;2023-12-29T13:10:45;17.40;;;8.20;;
56345;SDS011;42246;46.096;13.644;2023-12-29T13:13:10;11.07;;;7.22;;
56345;SDS011;42246;46.096;13.644;2023-12-29T13:15:57;11.43;;;7.25;;
56345;SDS011;42246;46.096;13.644;2023-12-29T13:18:28;20.85;;;10.68;;
56345;SDS011;42246;46.096;13.644;2023-12-29T13:20:54;19.70;;;11.98;;
56345;SDS011;42246;46.096;13.644;2023-12-29T13:23:20;17.65;;;9.48;;
56345;SDS011;42246;46.096;13.644;2023-12-29T13:25:50;22.52;;;11.90;;
56345;SDS011;42246;46.096;13.644;2023-12-29T13:28:22;19.80;;;11.88;;
56345;SDS011;42246;46.096;13.644;2023-12-29T13:31:07;19.63;;;11.02;;
56345;SDS011;42246;46.096;13.644;2023-12-29T13:33:48;19.60;;;11.60;;
56345;SDS011;42246;46.096;13.644;2023-12-29T13:41:34;16.63;;;11.25;;
56345;SDS011;42246;46.096;13.644;2023-12-29T13:44:01;18.70;;;10.13;;
56345;SDS011;42246;46.096;13.644;2023-12-29T13:46:27;18.58;;;11.05;;
56345;SDS011;42246;46.096;13.644;2023-12-29T13:48:53;28.50;;;12.50;;
56345;SDS011;42246;46.096;13.644;2023-12-29T13:51:25;25.50;;;15.25;;
56345;SDS011;42246;46.096;13.644;2023-12-29T13:53:57;37.25;;;18.42;;
56345;SDS011;42246;46.096;13.644;2023-12-29T13:56:24;30.70;;;15.77;;
56345;SDS011;42246;46.096;13.644;2023-12-29T13:58:53;23.70;;;13.45;;
56345;SDS011;42246;46.096;13.644;2023-12-29T14:01:18;31.25;;;18.05;;
56345;SDS011;42246;46.096;13.644;2023-12-29T14:03:50;28.38;;;18.00;;
56345;SDS011;42246;46.096;13.644;2023-12-29T14:06:21;25.23;;;13.50;;
56345;SDS011;42246;46.096;13.644;2023-12-29T14:08:53;24.40;;;11.10;;
56345;SDS011;42246;46.096;13.644;2023-12-29T14:11:18;26.33;;;13.65;;
56345;SDS011;42246;46.096;13.644;2023-12-29T14:13:44;30.05;;;15.93;;
56345;SDS011;42246;46.096;13.644;2023-12-29T14:16:13;24.35;;;14.05;;
56345;SDS011;42246;46.096;13.644;2023-12-29T14:19:00;25.60;;;13.30;;
56345;SDS011;42246;46.096;13.644;2023-12-29T14:21:32;34.25;;;20.20;;
56345;SDS011;42246;46.096;13.644;2023-12-29T14:26:58;32.13;;;17.85;;